sensor_id;sensor_type;location;lat;lon;timestamp;temperature;humidity
21666;DHT22;10994;45.486;9.190;2022-09-29T00:01:24;18.50;99.90
21666;DHT22;10994;45.486;9.190;2022-09-29T00:03:50;18.40;99.90
21666;DHT22;10994;45.486;9.190;2022-09-29T00:06:17;18.40;99.90
21666;DHT22;10994;45.486;9.190;2022-09-29T00:08:44;18.40;99.90
21666;DHT22;10994;45.486;9.190;2022-09-29T00:11:12;18.30;99.90
21666;DHT22;10994;45.486;9.190;2022-09-29T00:13:39;18.30;99.90
21666;DHT22;10994;45.486;9.190;2022-09-29T00:16:05;18.20;99.90
21666;DHT22;10994;45.486;9.190;2022-09-29T00:18:32;18.20;99.90
21666;DHT22;10994;45.486;9.190;2022-09-29T00:21:08;18.20;99.90
21666;DHT22;10994;45.486;9.190;2022-09-29T00:23:35;18.00;99.90
21666;DHT22;10994;45.486;9.190;2022-09-29T00:26:05;17.90;99.90
21666;DHT22;10994;45.486;9.190;2022-09-29T00:28:33;17.80;99.90
21666;DHT22;10994;45.486;9.190;2022-09-29T00:31:00;17.80;99.90
21666;DHT22;10994;45.486;9.190;2022-09-29T00:33:31;17.90;99.90
21666;DHT22;10994;45.486;9.190;2022-09-29T00:35:59;17.90;99.90
21666;DHT22;10994;45.486;9.190;2022-09-29T00:38:26;18.00;99.90
21666;DHT22;10994;45.486;9.190;2022-09-29T00:40:53;17.80;99.90
21666;DHT22;10994;45.486;9.190;2022-09-29T00:43:22;17.80;99.90
21666;DHT22;10994;45.486;9.190;2022-09-29T00:45:51;17.70;99.90
21666;DHT22;10994;45.486;9.190;2022-09-29T00:48:21;17.70;99.90
21666;DHT22;10994;45.486;9.190;2022-09-29T00:50:51;17.80;99.90
21666;DHT22;10994;45.486;9.190;2022-09-29T00:53:19;17.80;99.90
21666;DHT22;10994;45.486;9.190;2022-09-29T00:55:56;17.80;99.90
21666;DHT22;10994;45.486;9.190;2022-09-29T00:58:34;17.80;99.90
21666;DHT22;10994;45.486;9.190;2022-09-29T01:01:03;17.90;99.90
21666;DHT22;10994;45.486;9.190;2022-09-29T01:03:32;17.90;99.90
21666;DHT22;10994;45.486;9.190;2022-09-29T01:06:02;18.00;99.90
21666;DHT22;10994;45.486;9.190;2022-09-29T01:08:35;18.00;99.90
21666;DHT22;10994;45.486;9.190;2022-09-29T01:11:04;18.00;99.90
21666;DHT22;10994;45.486;9.190;2022-09-29T01:13:32;18.00;99.90
21666;DHT22;10994;45.486;9.190;2022-09-29T01:15:58;18.00;99.90
21666;DHT22;10994;45.486;9.190;2022-09-29T01:18:25;18.00;99.90
21666;DHT22;10994;45.486;9.190;2022-09-29T01:20:58;18.00;99.90
21666;DHT22;10994;45.486;9.190;2022-09-29T01:31:57;17.80;99.90
21666;DHT22;10994;45.486;9.190;2022-09-29T01:39:40;17.70;99.90
21666;DHT22;10994;45.486;9.190;2022-09-29T01:42:17;17.60;99.90
21666;DHT22;10994;45.486;9.190;2022-09-29T01:44:53;17.60;99.90
21666;DHT22;10994;45.486;9.190;2022-09-29T01:50:05;17.70;99.90
21666;DHT22;10994;45.486;9.190;2022-09-29T01:52:36;17.80;99.90
21666;DHT22;10994;45.486;9.190;2022-09-29T01:55:08;17.80;99.90
21666;DHT22;10994;45.486;9.190;2022-09-29T01:57:46;17.90;99.90
21666;DHT22;10994;45.486;9.190;2022-09-29T02:00:17;17.90;99.90
21666;DHT22;10994;45.486;9.190;2022-09-29T02:02:48;17.90;99.90
21666;DHT22;10994;45.486;9.190;2022-09-29T02:05:20;17.90;99.90
21666;DHT22;10994;45.486;9.190;2022-09-29T02:07:49;17.90;99.90
21666;DHT22;10994;45.486;9.190;2022-09-29T02:10:20;17.80;99.90
21666;DHT22;10994;45.486;9.190;2022-09-29T02:12:49;17.90;99.90
21666;DHT22;10994;45.486;9.190;2022-09-29T02:15:21;17.90;99.90
21666;DHT22;10994;45.486;9.190;2022-09-29T02:17:49;17.90;99.90
21666;DHT22;10994;45.486;9.190;2022-09-29T02:20:17;17.80;99.90
21666;DHT22;10994;45.486;9.190;2022-09-29T02:22:44;17.80;99.90
21666;DHT22;10994;45.486;9.190;2022-09-29T02:25:11;17.80;99.90
21666;DHT22;10994;45.486;9.190;2022-09-29T02:27:38;17.80;99.90
21666;DHT22;10994;45.486;9.190;2022-09-29T02:30:04;17.80;99.90
21666;DHT22;10994;45.486;9.190;2022-09-29T02:32:32;17.90;99.90
21666;DHT22;10994;45.486;9.190;2022-09-29T02:34:59;17.90;99.90
21666;DHT22;10994;45.486;9.190;2022-09-29T02:37:46;17.80;99.90
21666;DHT22;10994;45.486;9.190;2022-09-29T02:51:43;17.60;99.90
21666;DHT22;10994;45.486;9.190;2022-09-29T02:57:11;17.60;99.90
21666;DHT22;10994;45.486;9.190;2022-09-29T03:02:27;17.50;99.90
21666;DHT22;10994;45.486;9.190;2022-09-29T03:04:53;17.60;99.90
21666;DHT22;10994;45.486;9.190;2022-09-29T03:07:20;17.60;99.90
21666;DHT22;10994;45.486;9.190;2022-09-29T03:09:45;17.60;99.90
21666;DHT22;10994;45.486;9.190;2022-09-29T03:12:12;17.40;99.90
21666;DHT22;10994;45.486;9.190;2022-09-29T03:14:37;17.40;99.90
21666;DHT22;10994;45.486;9.190;2022-09-29T03:17:03;17.30;99.90
21666;DHT22;10994;45.486;9.190;2022-09-29T03:19:29;17.30;99.90
21666;DHT22;10994;45.486;9.190;2022-09-29T03:21:54;17.40;99.90
21666;DHT22;10994;45.486;9.190;2022-09-29T03:24:20;17.40;99.90
21666;DHT22;10994;45.486;9.190;2022-09-29T03:26:46;17.50;99.90
21666;DHT22;10994;45.486;9.190;2022-09-29T03:29:11;17.50;99.90
21666;DHT22;10994;45.486;9.190;2022-09-29T03:31:40;17.50;99.90
21666;DHT22;10994;45.486;9.190;2022-09-29T03:34:06;17.50;99.90
21666;DHT22;10994;45.486;9.190;2022-09-29T03:36:31;17.50;99.90
21666;DHT22;10994;45.486;9.190;2022-09-29T03:38:57;17.40;99.90
21666;DHT22;10994;45.486;9.190;2022-09-29T03:41:23;17.40;99.90
21666;DHT22;10994;45.486;9.190;2022-09-29T03:43:48;17.30;99.90
21666;DHT22;10994;45.486;9.190;2022-09-29T03:46:14;17.20;99.90
21666;DHT22;10994;45.486;9.190;2022-09-29T03:48:40;17.10;99.90
21666;DHT22;10994;45.486;9.190;2022-09-29T03:51:06;17.10;99.90
21666;DHT22;10994;45.486;9.190;2022-09-29T03:53:35;17.20;99.90
21666;DHT22;10994;45.486;9.190;2022-09-29T03:56:02;17.30;99.90
21666;DHT22;10994;45.486;9.190;2022-09-29T03:58:28;17.30;99.90
21666;DHT22;10994;45.486;9.190;2022-09-29T04:00:53;17.30;99.90
21666;DHT22;10994;45.486;9.190;2022-09-29T04:03:20;17.40;99.90
21666;DHT22;10994;45.486;9.190;2022-09-29T04:05:46;17.40;99.90
21666;DHT22;10994;45.486;9.190;2022-09-29T04:08:13;17.40;99.90
21666;DHT22;10994;45.486;9.190;2022-09-29T04:10:39;17.40;99.90
21666;DHT22;10994;45.486;9.190;2022-09-29T04:13:06;17.40;99.90
21666;DHT22;10994;45.486;9.190;2022-09-29T04:15:32;17.40;99.90
21666;DHT22;10994;45.486;9.190;2022-09-29T04:17:59;17.30;99.90
21666;DHT22;10994;45.486;9.190;2022-09-29T04:20:25;17.30;99.90
21666;DHT22;10994;45.486;9.190;2022-09-29T04:22:51;17.30;99.90
21666;DHT22;10994;45.486;9.190;2022-09-29T04:25:17;17.20;99.90
21666;DHT22;10994;45.486;9.190;2022-09-29T04:27:42;17.10;99.90
21666;DHT22;10994;45.486;9.190;2022-09-29T04:30:09;17.00;99.90
21666;DHT22;10994;45.486;9.190;2022-09-29T04:32:34;17.00;99.90
21666;DHT22;10994;45.486;9.190;2022-09-29T04:35:00;17.00;99.90
21666;DHT22;10994;45.486;9.190;2022-09-29T04:37:26;17.10;99.90
21666;DHT22;10994;45.486;9.190;2022-09-29T04:39:53;17.10;99.90
21666;DHT22;10994;45.486;9.190;2022-09-29T04:42:19;17.10;99.90
21666;DHT22;10994;45.486;9.190;2022-09-29T04:44:45;17.10;99.90
21666;DHT22;10994;45.486;9.190;2022-09-29T04:47:11;17.20;99.90
21666;DHT22;10994;45.486;9.190;2022-09-29T04:49:37;17.30;99.90
21666;DHT22;10994;45.486;9.190;2022-09-29T04:52:03;17.30;99.90
21666;DHT22;10994;45.486;9.190;2022-09-29T04:54:31;17.30;99.90
21666;DHT22;10994;45.486;9.190;2022-09-29T04:56:58;17.20;99.90
21666;DHT22;10994;45.486;9.190;2022-09-29T04:59:24;17.10;99.90
21666;DHT22;10994;45.486;9.190;2022-09-29T05:01:50;17.10;99.90
21666;DHT22;10994;45.486;9.190;2022-09-29T05:04:15;17.10;99.90
21666;DHT22;10994;45.486;9.190;2022-09-29T05:06:41;17.20;99.90
21666;DHT22;10994;45.486;9.190;2022-09-29T05:09:07;17.30;99.90
21666;DHT22;10994;45.486;9.190;2022-09-29T05:11:33;17.30;99.90
21666;DHT22;10994;45.486;9.190;2022-09-29T05:13:59;17.40;99.90
21666;DHT22;10994;45.486;9.190;2022-09-29T05:16:25;17.40;99.90
21666;DHT22;10994;45.486;9.190;2022-09-29T05:18:51;17.40;99.90
21666;DHT22;10994;45.486;9.190;2022-09-29T05:21:16;17.40;99.90
21666;DHT22;10994;45.486;9.190;2022-09-29T05:23:42;17.40;99.90
21666;DHT22;10994;45.486;9.190;2022-09-29T05:26:09;17.40;99.90
21666;DHT22;10994;45.486;9.190;2022-09-29T05:28:36;17.40;99.90
21666;DHT22;10994;45.486;9.190;2022-09-29T05:31:08;17.30;99.90
21666;DHT22;10994;45.486;9.190;2022-09-29T05:33:35;17.20;99.90
21666;DHT22;10994;45.486;9.190;2022-09-29T05:36:07;17.20;99.90
21666;DHT22;10994;45.486;9.190;2022-09-29T05:38:37;17.30;99.90
21666;DHT22;10994;45.486;9.190;2022-09-29T05:41:10;17.30;99.90
21666;DHT22;10994;45.486;9.190;2022-09-29T05:43:37;17.40;99.90
21666;DHT22;10994;45.486;9.190;2022-09-29T05:46:05;17.40;99.90
21666;DHT22;10994;45.486;9.190;2022-09-29T05:48:32;17.30;99.90
21666;DHT22;10994;45.486;9.190;2022-09-29T05:50:59;17.40;99.90
21666;DHT22;10994;45.486;9.190;2022-09-29T05:53:31;17.40;99.90
21666;DHT22;10994;45.486;9.190;2022-09-29T05:55:56;17.40;99.90
21666;DHT22;10994;45.486;9.190;2022-09-29T05:58:22;17.50;99.90
21666;DHT22;10994;45.486;9.190;2022-09-29T06:00:47;17.50;99.90
21666;DHT22;10994;45.486;9.190;2022-09-29T06:03:13;17.50;99.90
21666;DHT22;10994;45.486;9.190;2022-09-29T06:05:39;17.50;99.90
21666;DHT22;10994;45.486;9.190;2022-09-29T06:08:05;17.50;99.90
21666;DHT22;10994;45.486;9.190;2022-09-29T06:10:32;17.60;99.90
21666;DHT22;10994;45.486;9.190;2022-09-29T06:12:59;17.60;99.90
21666;DHT22;10994;45.486;9.190;2022-09-29T06:15:25;17.60;99.90
21666;DHT22;10994;45.486;9.190;2022-09-29T06:17:58;17.60;99.90
21666;DHT22;10994;45.486;9.190;2022-09-29T06:20:24;17.60;99.90
21666;DHT22;10994;45.486;9.190;2022-09-29T06:22:53;17.60;99.90
21666;DHT22;10994;45.486;9.190;2022-09-29T06:25:19;17.60;99.90
21666;DHT22;10994;45.486;9.190;2022-09-29T06:27:45;17.60;99.90
21666;DHT22;10994;45.486;9.190;2022-09-29T06:30:11;17.60;99.90
21666;DHT22;10994;45.486;9.190;2022-09-29T06:32:38;17.60;99.90
21666;DHT22;10994;45.486;9.190;2022-09-29T06:35:04;17.60;99.90
21666;DHT22;10994;45.486;9.190;2022-09-29T06:37:49;17.70;99.90
21666;DHT22;10994;45.486;9.190;2022-09-29T06:40:16;17.70;99.90
21666;DHT22;10994;45.486;9.190;2022-09-29T06:42:45;17.70;99.90
21666;DHT22;10994;45.486;9.190;2022-09-29T06:45:11;17.80;99.90
21666;DHT22;10994;45.486;9.190;2022-09-29T06:47:36;18.10;99.90
21666;DHT22;10994;45.486;9.190;2022-09-29T06:50:03;18.70;99.90
21666;DHT22;10994;45.486;9.190;2022-09-29T06:52:28;19.30;99.90
21666;DHT22;10994;45.486;9.190;2022-09-29T06:54:54;19.20;99.90
21666;DHT22;10994;45.486;9.190;2022-09-29T06:57:20;18.90;99.90
21666;DHT22;10994;45.486;9.190;2022-09-29T06:59:45;19.10;99.90
21666;DHT22;10994;45.486;9.190;2022-09-29T07:02:11;19.30;99.90
21666;DHT22;10994;45.486;9.190;2022-09-29T07:04:37;19.10;99.90
21666;DHT22;10994;45.486;9.190;2022-09-29T07:07:03;19.00;99.90
21666;DHT22;10994;45.486;9.190;2022-09-29T07:09:28;18.90;99.90
21666;DHT22;10994;45.486;9.190;2022-09-29T07:11:54;18.80;99.90
21666;DHT22;10994;45.486;9.190;2022-09-29T07:14:21;18.80;99.90
21666;DHT22;10994;45.486;9.190;2022-09-29T07:16:48;18.70;99.90
21666;DHT22;10994;45.486;9.190;2022-09-29T07:19:15;18.70;99.90
21666;DHT22;10994;45.486;9.190;2022-09-29T07:21:45;18.70;99.90
21666;DHT22;10994;45.486;9.190;2022-09-29T07:24:11;18.60;99.90
21666;DHT22;10994;45.486;9.190;2022-09-29T07:26:37;18.60;99.90
21666;DHT22;10994;45.486;9.190;2022-09-29T07:29:03;18.70;99.90
21666;DHT22;10994;45.486;9.190;2022-09-29T07:31:29;18.60;99.90
21666;DHT22;10994;45.486;9.190;2022-09-29T07:33:55;18.60;99.90
21666;DHT22;10994;45.486;9.190;2022-09-29T07:36:21;18.60;99.90
21666;DHT22;10994;45.486;9.190;2022-09-29T07:38:49;18.60;99.90
21666;DHT22;10994;45.486;9.190;2022-09-29T07:41:20;18.60;99.90
21666;DHT22;10994;45.486;9.190;2022-09-29T07:43:46;18.60;99.90
21666;DHT22;10994;45.486;9.190;2022-09-29T07:46:12;18.60;99.90
21666;DHT22;10994;45.486;9.190;2022-09-29T07:48:38;18.50;99.90
21666;DHT22;10994;45.486;9.190;2022-09-29T07:51:11;18.50;99.90
21666;DHT22;10994;45.486;9.190;2022-09-29T07:53:38;18.60;99.90
21666;DHT22;10994;45.486;9.190;2022-09-29T07:56:21;18.50;99.90
21666;DHT22;10994;45.486;9.190;2022-09-29T07:58:49;18.40;99.90
21666;DHT22;10994;45.486;9.190;2022-09-29T08:01:17;18.50;99.90
21666;DHT22;10994;45.486;9.190;2022-09-29T08:03:48;18.50;99.90
21666;DHT22;10994;45.486;9.190;2022-09-29T08:06:18;18.50;99.90
21666;DHT22;10994;45.486;9.190;2022-09-29T08:08:44;18.50;99.90
21666;DHT22;10994;45.486;9.190;2022-09-29T08:11:12;18.60;99.90
21666;DHT22;10994;45.486;9.190;2022-09-29T08:13:38;18.70;99.90
21666;DHT22;10994;45.486;9.190;2022-09-29T08:16:07;18.80;99.90
21666;DHT22;10994;45.486;9.190;2022-09-29T08:18:34;18.70;99.90
21666;DHT22;10994;45.486;9.190;2022-09-29T08:21:01;18.70;99.90
21666;DHT22;10994;45.486;9.190;2022-09-29T08:23:27;18.70;99.90
21666;DHT22;10994;45.486;9.190;2022-09-29T08:26:04;18.80;99.90
21666;DHT22;10994;45.486;9.190;2022-09-29T08:28:33;18.60;99.90
21666;DHT22;10994;45.486;9.190;2022-09-29T08:31:07;18.50;99.90
21666;DHT22;10994;45.486;9.190;2022-09-29T08:33:33;18.60;99.90
21666;DHT22;10994;45.486;9.190;2022-09-29T08:36:03;18.40;99.90
21666;DHT22;10994;45.486;9.190;2022-09-29T08:38:43;18.30;99.90
21666;DHT22;10994;45.486;9.190;2022-09-29T08:43:52;18.30;99.90
21666;DHT22;10994;45.486;9.190;2022-09-29T08:46:32;18.40;99.90
21666;DHT22;10994;45.486;9.190;2022-09-29T08:49:03;18.50;99.90
21666;DHT22;10994;45.486;9.190;2022-09-29T08:51:33;18.60;99.90
21666;DHT22;10994;45.486;9.190;2022-09-29T08:54:07;18.60;99.90
21666;DHT22;10994;45.486;9.190;2022-09-29T08:56:34;18.70;99.90
21666;DHT22;10994;45.486;9.190;2022-09-29T08:59:00;18.60;99.90
21666;DHT22;10994;45.486;9.190;2022-09-29T09:01:44;18.70;99.90
21666;DHT22;10994;45.486;9.190;2022-09-29T09:04:50;18.90;99.90
21666;DHT22;10994;45.486;9.190;2022-09-29T09:15:25;18.70;99.90
21666;DHT22;10994;45.486;9.190;2022-09-29T09:21:14;18.70;99.90
21666;DHT22;10994;45.486;9.190;2022-09-29T09:26:16;18.70;99.90
21666;DHT22;10994;45.486;9.190;2022-09-29T09:31:30;18.70;99.90
21666;DHT22;10994;45.486;9.190;2022-09-29T09:34:28;18.70;99.90
21666;DHT22;10994;45.486;9.190;2022-09-29T09:37:09;18.50;99.90
21666;DHT22;10994;45.486;9.190;2022-09-29T09:39:39;18.60;99.90
21666;DHT22;10994;45.486;9.190;2022-09-29T09:42:14;18.70;99.90
21666;DHT22;10994;45.486;9.190;2022-09-29T09:44:47;18.80;99.90
21666;DHT22;10994;45.486;9.190;2022-09-29T09:47:52;19.00;99.90
21666;DHT22;10994;45.486;9.190;2022-09-29T09:50:17;19.10;99.90
21666;DHT22;10994;45.486;9.190;2022-09-29T09:52:57;19.20;99.90
21666;DHT22;10994;45.486;9.190;2022-09-29T09:55:25;19.20;99.90
21666;DHT22;10994;45.486;9.190;2022-09-29T09:58:48;19.20;99.90
21666;DHT22;10994;45.486;9.190;2022-09-29T10:01:19;19.40;99.90
21666;DHT22;10994;45.486;9.190;2022-09-29T10:03:45;19.20;99.90
21666;DHT22;10994;45.486;9.190;2022-09-29T10:06:11;19.10;99.90
21666;DHT22;10994;45.486;9.190;2022-09-29T10:08:39;19.20;99.90
21666;DHT22;10994;45.486;9.190;2022-09-29T10:11:35;19.10;99.90
21666;DHT22;10994;45.486;9.190;2022-09-29T10:16:49;18.90;99.90
21666;DHT22;10994;45.486;9.190;2022-09-29T10:19:23;18.80;99.90
21666;DHT22;10994;45.486;9.190;2022-09-29T10:22:13;18.80;99.90
21666;DHT22;10994;45.486;9.190;2022-09-29T10:24:39;18.80;99.90
21666;DHT22;10994;45.486;9.190;2022-09-29T10:27:05;18.60;99.90
21666;DHT22;10994;45.486;9.190;2022-09-29T10:29:42;18.50;99.90
21666;DHT22;10994;45.486;9.190;2022-09-29T10:32:15;18.50;99.90
21666;DHT22;10994;45.486;9.190;2022-09-29T10:34:44;18.60;99.90
21666;DHT22;10994;45.486;9.190;2022-09-29T10:39:46;18.50;99.90
21666;DHT22;10994;45.486;9.190;2022-09-29T10:42:22;18.40;99.90
21666;DHT22;10994;45.486;9.190;2022-09-29T10:44:51;18.50;99.90
21666;DHT22;10994;45.486;9.190;2022-09-29T10:47:19;18.70;99.90
21666;DHT22;10994;45.486;9.190;2022-09-29T10:49:45;18.80;99.90
21666;DHT22;10994;45.486;9.190;2022-09-29T10:52:25;18.80;99.90
21666;DHT22;10994;45.486;9.190;2022-09-29T10:54:56;18.90;99.90
21666;DHT22;10994;45.486;9.190;2022-09-29T10:57:28;18.60;99.90
21666;DHT22;10994;45.486;9.190;2022-09-29T10:59:56;18.40;99.90
21666;DHT22;10994;45.486;9.190;2022-09-29T11:02:27;18.30;99.90
21666;DHT22;10994;45.486;9.190;2022-09-29T11:04:56;18.30;99.90
21666;DHT22;10994;45.486;9.190;2022-09-29T11:07:23;18.20;99.90
21666;DHT22;10994;45.486;9.190;2022-09-29T11:09:49;18.20;99.90
21666;DHT22;10994;45.486;9.190;2022-09-29T11:14:53;18.50;99.90
21666;DHT22;10994;45.486;9.190;2022-09-29T11:19:57;18.80;99.90
21666;DHT22;10994;45.486;9.190;2022-09-29T11:25:51;18.70;99.90
21666;DHT22;10994;45.486;9.190;2022-09-29T11:40:33;18.50;99.90
21666;DHT22;10994;45.486;9.190;2022-09-29T11:43:03;18.50;99.90
21666;DHT22;10994;45.486;9.190;2022-09-29T11:45:47;18.50;99.90
21666;DHT22;10994;45.486;9.190;2022-09-29T11:56:56;19.10;99.90
21666;DHT22;10994;45.486;9.190;2022-09-29T11:59:55;19.20;99.90
21666;DHT22;10994;45.486;9.190;2022-09-29T12:05:23;19.50;99.90
21666;DHT22;10994;45.486;9.190;2022-09-29T12:15:57;19.90;99.90
21666;DHT22;10994;45.486;9.190;2022-09-29T12:21:06;20.40;99.90
21666;DHT22;10994;45.486;9.190;2022-09-29T12:23:33;20.60;99.90
21666;DHT22;10994;45.486;9.190;2022-09-29T12:26:08;20.80;99.90
21666;DHT22;10994;45.486;9.190;2022-09-29T12:31:27;21.10;99.90
21666;DHT22;10994;45.486;9.190;2022-09-29T12:34:05;21.30;99.90
21666;DHT22;10994;45.486;9.190;2022-09-29T12:42:23;21.20;99.90
21666;DHT22;10994;45.486;9.190;2022-09-29T12:45:50;21.00;99.90
21666;DHT22;10994;45.486;9.190;2022-09-29T12:47:53;20.90;99.90
21666;DHT22;10994;45.486;9.190;2022-09-29T12:50:23;20.70;99.90
21666;DHT22;10994;45.486;9.190;2022-09-29T12:53:11;20.60;99.90
21666;DHT22;10994;45.486;9.190;2022-09-29T12:55:53;20.40;99.90
21666;DHT22;10994;45.486;9.190;2022-09-29T12:58:49;20.30;99.90
21666;DHT22;10994;45.486;9.190;2022-09-29T13:01:30;20.40;99.90
21666;DHT22;10994;45.486;9.190;2022-09-29T13:11:50;20.60;99.90
21666;DHT22;10994;45.486;9.190;2022-09-29T13:14:28;20.60;99.90
21666;DHT22;10994;45.486;9.190;2022-09-29T13:17:16;20.50;99.90
21666;DHT22;10994;45.486;9.190;2022-09-29T13:28:47;20.90;99.90
21666;DHT22;10994;45.486;9.190;2022-09-29T13:31:17;21.00;99.90
21666;DHT22;10994;45.486;9.190;2022-09-29T13:33:51;21.00;99.90
21666;DHT22;10994;45.486;9.190;2022-09-29T13:36:30;21.00;99.90
21666;DHT22;10994;45.486;9.190;2022-09-29T13:39:02;21.00;99.90
21666;DHT22;10994;45.486;9.190;2022-09-29T13:49:00;20.90;99.90
21666;DHT22;10994;45.486;9.190;2022-09-29T13:57:00;20.80;99.90
21666;DHT22;10994;45.486;9.190;2022-09-29T13:59:28;20.90;99.90
21666;DHT22;10994;45.486;9.190;2022-09-29T14:01:55;21.00;99.90
21666;DHT22;10994;45.486;9.190;2022-09-29T14:10:51;21.20;99.90
21666;DHT22;10994;45.486;9.190;2022-09-29T14:21:53;21.00;99.90
21666;DHT22;10994;45.486;9.190;2022-09-29T14:24:41;21.00;99.90
21666;DHT22;10994;45.486;9.190;2022-09-29T14:35:36;20.80;99.90
21666;DHT22;10994;45.486;9.190;2022-09-29T14:38:25;20.80;99.90
21666;DHT22;10994;45.486;9.190;2022-09-29T14:40:58;20.70;99.90
21666;DHT22;10994;45.486;9.190;2022-09-29T14:43:39;20.60;99.90
21666;DHT22;10994;45.486;9.190;2022-09-29T14:58:23;20.90;99.90
21666;DHT22;10994;45.486;9.190;2022-09-29T15:03:46;21.20;99.90
21666;DHT22;10994;45.486;9.190;2022-09-29T15:06:15;21.30;99.90
21666;DHT22;10994;45.486;9.190;2022-09-29T15:08:51;21.40;99.90
21666;DHT22;10994;45.486;9.190;2022-09-29T15:11:26;21.40;99.90
21666;DHT22;10994;45.486;9.190;2022-09-29T15:13:54;21.30;99.90
21666;DHT22;10994;45.486;9.190;2022-09-29T15:19:24;21.10;99.90
21666;DHT22;10994;45.486;9.190;2022-09-29T15:22:04;21.30;99.90
21666;DHT22;10994;45.486;9.190;2022-09-29T15:24:54;21.40;99.90
21666;DHT22;10994;45.486;9.190;2022-09-29T15:27:22;21.40;99.90
21666;DHT22;10994;45.486;9.190;2022-09-29T15:29:52;21.40;99.90
21666;DHT22;10994;45.486;9.190;2022-09-29T15:32:24;21.50;99.90
21666;DHT22;10994;45.486;9.190;2022-09-29T15:34:51;21.50;99.90
21666;DHT22;10994;45.486;9.190;2022-09-29T15:37:18;21.50;99.90
21666;DHT22;10994;45.486;9.190;2022-09-29T15:39:50;21.40;99.90
21666;DHT22;10994;45.486;9.190;2022-09-29T15:42:21;21.30;99.90
21666;DHT22;10994;45.486;9.190;2022-09-29T15:44:57;21.20;99.90
21666;DHT22;10994;45.486;9.190;2022-09-29T15:47:39;21.10;99.90
21666;DHT22;10994;45.486;9.190;2022-09-29T15:50:20;20.90;99.90
21666;DHT22;10994;45.486;9.190;2022-09-29T15:52:46;20.90;99.90
21666;DHT22;10994;45.486;9.190;2022-09-29T15:55:22;21.00;99.90
21666;DHT22;10994;45.486;9.190;2022-09-29T15:57:49;20.90;99.90
21666;DHT22;10994;45.486;9.190;2022-09-29T16:03:05;20.80;99.90
21666;DHT22;10994;45.486;9.190;2022-09-29T16:05:36;21.00;99.90
21666;DHT22;10994;45.486;9.190;2022-09-29T16:08:05;21.20;99.90
21666;DHT22;10994;45.486;9.190;2022-09-29T16:10:47;21.20;99.90
21666;DHT22;10994;45.486;9.190;2022-09-29T16:13:23;21.20;99.90
21666;DHT22;10994;45.486;9.190;2022-09-29T16:15:55;21.20;99.90
21666;DHT22;10994;45.486;9.190;2022-09-29T16:18:30;21.20;99.90
21666;DHT22;10994;45.486;9.190;2022-09-29T16:20:58;21.20;99.90
21666;DHT22;10994;45.486;9.190;2022-09-29T16:23:40;21.10;99.90
21666;DHT22;10994;45.486;9.190;2022-09-29T16:28:34;21.10;99.90
21666;DHT22;10994;45.486;9.190;2022-09-29T16:31:18;21.10;99.90
21666;DHT22;10994;45.486;9.190;2022-09-29T16:33:52;21.00;99.90
21666;DHT22;10994;45.486;9.190;2022-09-29T16:36:32;21.00;99.90
21666;DHT22;10994;45.486;9.190;2022-09-29T16:39:02;21.00;99.90
21666;DHT22;10994;45.486;9.190;2022-09-29T16:41:40;21.00;99.90
21666;DHT22;10994;45.486;9.190;2022-09-29T16:49:59;21.00;99.90
21666;DHT22;10994;45.486;9.190;2022-09-29T16:52:44;20.90;99.90
21666;DHT22;10994;45.486;9.190;2022-09-29T16:55:18;21.00;99.90
21666;DHT22;10994;45.486;9.190;2022-09-29T17:00:17;20.80;99.90
21666;DHT22;10994;45.486;9.190;2022-09-29T17:02:43;20.70;99.90
21666;DHT22;10994;45.486;9.190;2022-09-29T17:05:08;20.70;99.90
21666;DHT22;10994;45.486;9.190;2022-09-29T17:07:38;20.70;99.90
21666;DHT22;10994;45.486;9.190;2022-09-29T17:10:09;20.60;99.90
21666;DHT22;10994;45.486;9.190;2022-09-29T17:12:39;20.60;99.90
21666;DHT22;10994;45.486;9.190;2022-09-29T17:15:05;20.60;99.90
21666;DHT22;10994;45.486;9.190;2022-09-29T17:17:31;20.60;99.90
21666;DHT22;10994;45.486;9.190;2022-09-29T17:19:58;20.60;99.90
21666;DHT22;10994;45.486;9.190;2022-09-29T17:24:56;20.30;99.90
21666;DHT22;10994;45.486;9.190;2022-09-29T17:27:21;20.30;99.90
21666;DHT22;10994;45.486;9.190;2022-09-29T17:30:06;20.10;99.90
21666;DHT22;10994;45.486;9.190;2022-09-29T17:32:33;20.00;99.90
21666;DHT22;10994;45.486;9.190;2022-09-29T17:35:00;19.70;99.90
21666;DHT22;10994;45.486;9.190;2022-09-29T17:37:26;19.60;99.90
21666;DHT22;10994;45.486;9.190;2022-09-29T17:39:52;19.40;99.90
21666;DHT22;10994;45.486;9.190;2022-09-29T17:42:18;19.30;99.90
21666;DHT22;10994;45.486;9.190;2022-09-29T17:44:44;18.90;99.90
21666;DHT22;10994;45.486;9.190;2022-09-29T17:47:13;18.70;99.90
21666;DHT22;10994;45.486;9.190;2022-09-29T17:49:44;18.40;99.90
21666;DHT22;10994;45.486;9.190;2022-09-29T17:52:11;18.20;99.90
21666;DHT22;10994;45.486;9.190;2022-09-29T17:54:40;18.10;99.90
21666;DHT22;10994;45.486;9.190;2022-09-29T17:57:06;18.20;99.90
21666;DHT22;10994;45.486;9.190;2022-09-29T17:59:32;18.10;99.90
21666;DHT22;10994;45.486;9.190;2022-09-29T18:02:13;18.00;99.90
21666;DHT22;10994;45.486;9.190;2022-09-29T18:04:40;17.90;99.90
21666;DHT22;10994;45.486;9.190;2022-09-29T18:07:10;17.90;99.90
21666;DHT22;10994;45.486;9.190;2022-09-29T18:09:37;17.90;99.90
21666;DHT22;10994;45.486;9.190;2022-09-29T18:12:03;18.00;99.90
21666;DHT22;10994;45.486;9.190;2022-09-29T18:14:28;18.00;99.90
21666;DHT22;10994;45.486;9.190;2022-09-29T18:17:00;17.90;99.90
21666;DHT22;10994;45.486;9.190;2022-09-29T18:19:28;17.90;99.90
21666;DHT22;10994;45.486;9.190;2022-09-29T18:21:54;17.80;99.90
21666;DHT22;10994;45.486;9.190;2022-09-29T18:24:21;17.70;99.90
21666;DHT22;10994;45.486;9.190;2022-09-29T18:26:47;17.80;99.90
21666;DHT22;10994;45.486;9.190;2022-09-29T18:29:16;17.80;99.90
21666;DHT22;10994;45.486;9.190;2022-09-29T18:31:45;17.90;99.90
21666;DHT22;10994;45.486;9.190;2022-09-29T18:34:14;17.90;99.90
21666;DHT22;10994;45.486;9.190;2022-09-29T18:36:41;17.80;99.90
21666;DHT22;10994;45.486;9.190;2022-09-29T18:39:08;17.80;99.90
21666;DHT22;10994;45.486;9.190;2022-09-29T18:41:34;17.70;99.90
21666;DHT22;10994;45.486;9.190;2022-09-29T18:44:00;17.70;99.90
21666;DHT22;10994;45.486;9.190;2022-09-29T18:46:26;17.70;99.90
21666;DHT22;10994;45.486;9.190;2022-09-29T18:48:54;17.60;99.90
21666;DHT22;10994;45.486;9.190;2022-09-29T18:51:19;17.60;99.90
21666;DHT22;10994;45.486;9.190;2022-09-29T18:53:45;17.60;99.90
21666;DHT22;10994;45.486;9.190;2022-09-29T18:56:15;17.70;99.90
21666;DHT22;10994;45.486;9.190;2022-09-29T18:58:41;17.60;99.90
21666;DHT22;10994;45.486;9.190;2022-09-29T19:01:12;17.40;99.90
21666;DHT22;10994;45.486;9.190;2022-09-29T19:03:38;17.30;99.90
21666;DHT22;10994;45.486;9.190;2022-09-29T19:06:05;17.20;99.90